createdAt,value
2023-01-06T00:01:09.886Z,101603.88
2023-01-06T00:03:36.663Z,101631.84
2023-01-06T00:06:04.982Z,101589.00
2023-01-06T00:08:31.735Z,101564.81
2023-01-06T00:10:58.313Z,101586.44
2023-01-06T00:13:24.869Z,101602.63
2023-01-06T00:15:51.551Z,101600.88
2023-01-06T00:18:18.171Z,101592.88
2023-01-06T00:20:44.680Z,101531.78
2023-01-06T00:23:11.223Z,101579.41
2023-01-06T00:25:37.793Z,101596.56
2023-01-06T00:28:04.451Z,101594.06
2023-01-06T00:30:32.463Z,101594.13
2023-01-06T00:32:58.985Z,101562.63
2023-01-06T00:35:25.585Z,101586.94
2023-01-06T00:37:52.091Z,101597.72
2023-01-06T00:40:18.591Z,101597.66
2023-01-06T00:42:45.074Z,101568.91
2023-01-06T00:45:11.756Z,101568.91
2023-01-06T00:47:38.331Z,101585.09
2023-01-06T00:50:05.365Z,101568.13
2023-01-06T00:52:32.042Z,101528.53
2023-01-06T00:54:59.098Z,101575.28
2023-01-06T00:57:26.122Z,101569.13
2023-01-06T00:59:52.694Z,101571.06
2023-01-06T01:02:19.506Z,101572.72
2023-01-06T01:04:46.193Z,101581.75
2023-01-06T01:07:12.722Z,101560.28
2023-01-06T01:09:39.514Z,101587.09
2023-01-06T01:12:09.856Z,101517.13
2023-01-06T01:14:39.848Z,101588.06
2023-01-06T01:17:06.991Z,101547.66
2023-01-06T01:19:34.966Z,101530.63
2023-01-06T01:22:01.786Z,101513.69
2023-01-06T01:24:28.326Z,101568.38
2023-01-06T01:26:55.106Z,101573.91
2023-01-06T01:29:21.596Z,101521.94
2023-01-06T01:31:49.900Z,101564.16
2023-01-06T01:34:17.944Z,101464.50
2023-01-06T01:36:47.106Z,101562.28
2023-01-06T01:39:15.730Z,101564.16
2023-01-06T01:41:42.997Z,101500.31
2023-01-06T01:44:47.123Z,101562.44
2023-01-06T01:47:18.738Z,101556.97
2023-01-06T01:49:49.103Z,101564.28
2023-01-06T01:52:17.875Z,101551.84
2023-01-06T01:54:45.806Z,101469.13
2023-01-06T01:57:21.331Z,101548.94
2023-01-06T01:59:48.068Z,101481.00
2023-01-06T02:02:17.622Z,101539.28
2023-01-06T02:04:51.371Z,101546.53
2023-01-06T02:07:20.902Z,101550.91
2023-01-06T02:09:59.461Z,101544.72
2023-01-06T02:12:25.987Z,101510.56
2023-01-06T02:14:52.599Z,101483.66
2023-01-06T02:17:40.268Z,101499.88
2023-01-06T02:20:12.941Z,101542.06
2023-01-06T02:23:17.170Z,101537.56
2023-01-06T02:26:08.286Z,101527.78
2023-01-06T02:29:04.015Z,101509.97
2023-01-06T02:31:44.270Z,101518.81
2023-01-06T02:34:16.053Z,101505.47
2023-01-06T02:36:42.544Z,101515.31
2023-01-06T02:39:49.336Z,101514.44
2023-01-06T02:42:57.452Z,101493.91
2023-01-06T02:45:34.320Z,101454.44
2023-01-06T02:48:05.104Z,101499.28
2023-01-06T02:50:38.333Z,101473.34
2023-01-06T02:53:28.603Z,101498.47
2023-01-06T02:55:57.095Z,101478.88
2023-01-06T02:58:23.540Z,101408.97
2023-01-06T03:00:57.352Z,101481.59
2023-01-06T03:03:29.249Z,101466.38
2023-01-06T03:06:03.137Z,101462.03
2023-01-06T03:08:32.021Z,101452.16
2023-01-06T03:11:00.655Z,101461.13
2023-01-06T03:13:47.759Z,101459.25
2023-01-06T03:16:16.001Z,101460.19
2023-01-06T03:18:44.302Z,101470.09
2023-01-06T03:21:16.493Z,101474.53
2023-01-06T03:23:45.889Z,101459.31
2023-01-06T03:26:13.490Z,101392.94
2023-01-06T03:28:40.284Z,101429.63
2023-01-06T03:31:37.477Z,101437.78
2023-01-06T03:34:39.777Z,101457.59
2023-01-06T03:37:27.607Z,101444.25
2023-01-06T03:40:27.872Z,101457.63
2023-01-06T03:43:16.174Z,101448.63
2023-01-06T03:45:56.758Z,101374.22
2023-01-06T03:48:49.936Z,101448.63
2023-01-06T03:51:42.889Z,101454.97
2023-01-06T03:54:39.816Z,101442.63
2023-01-06T03:57:13.063Z,101449.69
2023-01-06T03:59:47.582Z,101427.28
2023-01-06T04:02:15.039Z,101459.50
2023-01-06T04:04:42.697Z,101450.50
2023-01-06T04:07:10.920Z,101430.81
2023-01-06T04:09:42.266Z,101435.41
2023-01-06T04:12:27.581Z,101427.47
2023-01-06T04:14:54.121Z,101445.28
2023-01-06T04:17:20.678Z,101444.38
2023-01-06T04:19:47.230Z,101336.00
2023-01-06T04:22:14.197Z,101382.78
2023-01-06T04:24:40.771Z,101330.81
2023-01-06T04:27:07.340Z,101413.28
2023-01-06T04:29:34.592Z,101396.38
2023-01-06T04:32:01.125Z,101403.69
2023-01-06T04:34:27.674Z,101398.25
2023-01-06T04:36:55.088Z,101271.13
2023-01-06T04:39:21.796Z,101388.66
2023-01-06T04:41:48.380Z,101402.88
2023-01-06T04:44:14.904Z,101307.88
2023-01-06T04:46:41.413Z,101265.91
2023-01-06T04:49:08.232Z,101367.25
2023-01-06T04:51:34.831Z,101363.66
2023-01-06T04:54:01.805Z,101355.69
2023-01-06T04:56:28.380Z,101368.16
2023-01-06T04:58:55.992Z,101364.75
2023-01-06T05:01:23.930Z,101365.69
2023-01-06T05:03:50.889Z,101372.69
2023-01-06T05:06:18.289Z,101363.72
2023-01-06T05:08:45.680Z,101288.56
2023-01-06T05:11:17.499Z,101356.69
2023-01-06T05:13:44.033Z,101314.72
2023-01-06T05:16:15.777Z,101270.78
2023-01-06T05:18:42.302Z,101344.25
2023-01-06T05:21:08.939Z,101340.66
2023-01-06T05:23:37.033Z,101338.13
2023-01-06T05:26:04.294Z,101338.94
2023-01-06T05:28:31.080Z,101339.78
2023-01-06T05:31:05.228Z,101332.69
2023-01-06T05:33:32.883Z,101332.66
2023-01-06T05:36:06.533Z,101315.59
2023-01-06T05:38:34.341Z,101306.69
2023-01-06T05:41:01.774Z,101281.53
2023-01-06T05:43:28.820Z,101338.75
2023-01-06T05:45:56.239Z,101263.50
2023-01-06T05:48:27.632Z,101263.53
2023-01-06T05:51:01.549Z,101332.50
2023-01-06T05:53:31.221Z,101339.81
2023-01-06T05:56:02.875Z,101329.13
2023-01-06T05:58:29.614Z,101243.03
2023-01-06T06:00:56.128Z,101304.81
2023-01-06T06:03:22.884Z,101333.59
2023-01-06T06:05:49.449Z,101297.72
2023-01-06T06:08:16.163Z,101345.19
2023-01-06T06:10:42.673Z,101335.41
2023-01-06T06:13:09.240Z,101347.09
2023-01-06T06:15:36.019Z,101262.00
2023-01-06T06:18:03.327Z,101346.38
2023-01-06T06:20:30.530Z,101332.97
2023-01-06T06:22:57.009Z,101353.47
2023-01-06T06:25:23.493Z,101330.13
2023-01-06T06:27:49.967Z,101328.22
2023-01-06T06:30:17.409Z,101329.84
2023-01-06T06:32:43.963Z,101341.25
2023-01-06T06:35:10.467Z,101234.72
2023-01-06T06:37:36.969Z,101324.25
2023-01-06T06:40:04.155Z,101279.50
2023-01-06T06:42:30.666Z,101321.66
2023-01-06T06:44:57.206Z,101286.81
2023-01-06T06:47:23.712Z,101310.16
2023-01-06T06:49:51.197Z,101326.22
2023-01-06T06:52:17.751Z,101313.78
2023-01-06T06:54:44.215Z,101324.53
2023-01-06T06:57:10.670Z,101236.75
2023-01-06T06:59:37.185Z,101233.31
2023-01-06T07:02:03.863Z,101335.28
2023-01-06T07:04:30.412Z,101321.00
2023-01-06T07:06:57.109Z,101323.59
2023-01-06T07:09:23.551Z,101345.97
2023-01-06T07:11:50.025Z,101227.56
2023-01-06T07:14:16.544Z,101325.97
2023-01-06T07:16:43.040Z,101352.69
2023-01-06T07:19:10.294Z,101332.97
2023-01-06T07:21:38.349Z,101349.09
2023-01-06T07:24:05.130Z,101363.41
2023-01-06T07:26:31.646Z,101365.16
2023-01-06T07:28:58.151Z,101308.78
2023-01-06T07:31:24.718Z,101244.97
2023-01-06T07:33:52.478Z,101323.50
2023-01-06T07:36:19.150Z,101341.28
2023-01-06T07:38:45.618Z,101323.22
2023-01-06T07:41:12.130Z,101355.38
2023-01-06T07:43:38.656Z,101356.22
2023-01-06T07:46:05.212Z,101327.59
2023-01-06T07:48:31.935Z,101355.31
2023-01-06T07:50:58.729Z,101312.16
2023-01-06T07:53:25.387Z,101360.63
2023-01-06T07:55:53.314Z,101351.66
2023-01-06T07:58:20.797Z,101283.66
2023-01-06T08:00:47.335Z,101364.19
2023-01-06T08:03:13.935Z,101333.72
2023-01-06T08:05:41.964Z,101321.78
2023-01-06T08:08:09.767Z,101336.09
2023-01-06T08:10:42.310Z,101349.66
2023-01-06T08:13:09.260Z,101394.28
2023-01-06T08:15:37.636Z,101388.00
2023-01-06T08:18:04.332Z,101334.00
2023-01-06T08:20:30.987Z,101326.69
2023-01-06T08:22:57.941Z,101406.44
2023-01-06T08:25:24.509Z,101367.91
2023-01-06T08:27:51.204Z,101398.28
2023-01-06T08:30:21.455Z,101429.53
2023-01-06T08:32:48.998Z,101418.84
2023-01-06T08:35:16.125Z,101402.63
2023-01-06T08:37:42.642Z,101449.06
2023-01-06T08:40:09.763Z,101437.53
2023-01-06T08:42:36.351Z,101385.53
2023-01-06T08:45:03.097Z,101448.94
2023-01-06T08:47:29.678Z,101405.03
2023-01-06T08:49:56.245Z,101426.56
2023-01-06T08:52:22.795Z,101424.91
2023-01-06T08:54:49.291Z,101455.56
2023-01-06T08:57:16.338Z,101460.19
2023-01-06T08:59:43.209Z,101462.03
2023-01-06T09:02:11.579Z,101469.44
2023-01-06T09:04:38.885Z,101458.75
2023-01-06T09:07:05.528Z,101469.63
2023-01-06T09:09:33.547Z,101432.22
2023-01-06T09:12:00.097Z,101473.16
2023-01-06T09:14:26.613Z,101468.22
2023-01-06T09:16:53.214Z,101489.06
2023-01-06T09:19:20.523Z,101406.94
2023-01-06T09:21:47.126Z,101494.00
2023-01-06T09:24:14.632Z,101444.31
2023-01-06T09:26:41.371Z,101509.59
2023-01-06T09:29:07.930Z,101505.91
2023-01-06T09:31:34.806Z,101515.78
2023-01-06T09:34:01.338Z,101488.81
2023-01-06T09:36:28.093Z,101525.16
2023-01-06T09:38:54.635Z,101532.06
2023-01-06T09:41:42.872Z,101515.84
2023-01-06T09:44:30.175Z,101541.19
2023-01-06T09:46:58.945Z,101537.44
2023-01-06T09:49:40.861Z,101519.41
2023-01-06T09:52:23.600Z,101505.81
2023-01-06T09:54:53.176Z,101536.09
2023-01-06T09:57:48.417Z,101519.84
2023-01-06T10:00:22.317Z,101552.63
2023-01-06T10:02:48.921Z,101554.34
2023-01-06T10:05:54.089Z,101560.47
2023-01-06T10:08:33.883Z,101552.63
2023-01-06T10:11:12.494Z,101526.47
2023-01-06T10:13:44.402Z,101440.91
2023-01-06T10:16:55.226Z,101536.78
2023-01-06T10:19:47.828Z,101530.53
2023-01-06T10:22:35.609Z,101559.88
2023-01-06T10:25:06.951Z,101548.19
2023-01-06T10:27:42.021Z,101549.81
2023-01-06T10:30:20.008Z,101492.47
2023-01-06T10:32:49.728Z,101471.66
2023-01-06T10:35:19.935Z,101546.16
2023-01-06T10:37:48.851Z,101563.97
2023-01-06T10:40:27.569Z,101540.84
2023-01-06T10:43:13.422Z,101526.41
2023-01-06T10:45:43.302Z,101544.22
2023-01-06T10:48:16.465Z,101476.91
2023-01-06T10:50:43.075Z,101452.56
2023-01-06T10:53:14.150Z,101556.72
2023-01-06T10:55:48.034Z,101544.22
2023-01-06T10:58:45.111Z,101562.34
2023-01-06T11:01:17.216Z,101570.34
2023-01-06T11:03:45.563Z,101552.53
2023-01-06T11:06:18.201Z,101560.69
2023-01-06T11:08:44.912Z,101560.81
2023-01-06T11:11:27.225Z,101541.00
2023-01-06T11:13:58.983Z,101543.38
2023-01-06T11:16:29.222Z,101531.19
2023-01-06T11:19:02.688Z,101536.28
2023-01-06T11:21:46.782Z,101555.03
2023-01-06T11:24:19.615Z,101553.53
2023-01-06T11:26:52.218Z,101490.13
2023-01-06T11:29:23.648Z,101552.28
2023-01-06T11:31:50.692Z,101538.97
2023-01-06T11:34:24.480Z,101548.78
2023-01-06T11:36:52.367Z,101553.97
2023-01-06T11:39:27.971Z,101552.38
2023-01-06T11:41:56.445Z,101531.00
2023-01-06T11:44:31.132Z,101548.78
2023-01-06T11:47:06.336Z,101536.28
2023-01-06T11:49:39.327Z,101494.34
2023-01-06T11:52:32.927Z,101546.19
2023-01-06T11:55:19.015Z,101548.88
2023-01-06T11:57:59.664Z,101530.69
2023-01-06T12:00:53.117Z,101476.47
2023-01-06T12:03:19.694Z,101537.25
2023-01-06T12:06:01.087Z,101519.47
2023-01-06T12:08:41.986Z,101527.69
2023-01-06T12:11:50.197Z,101535.97
2023-01-06T12:14:28.347Z,101522.88
2023-01-06T12:17:02.495Z,101523.75
2023-01-06T12:20:06.040Z,101533.41
2023-01-06T12:22:48.639Z,101532.50
2023-01-06T12:25:21.053Z,101529.66
2023-01-06T12:28:01.682Z,101527.94
2023-01-06T12:30:34.266Z,101518.00
2023-01-06T12:33:20.956Z,101523.16
2023-01-06T12:35:51.619Z,101512.28
2023-01-06T12:38:44.737Z,101493.47
2023-01-06T12:41:23.404Z,101508.59
2023-01-06T12:43:58.787Z,101528.97
2023-01-06T12:46:32.472Z,101518.06
2023-01-06T12:49:18.659Z,101500.06
2023-01-06T12:51:54.484Z,101528.88
2023-01-06T12:54:32.846Z,101523.09
2023-01-06T12:57:38.036Z,101526.41
2023-01-06T13:00:41.699Z,101543.69
2023-01-06T13:03:17.193Z,101530.09
2023-01-06T13:06:02.486Z,101531.50
2023-01-06T13:08:38.059Z,101455.44
2023-01-06T13:11:29.948Z,101534.16
2023-01-06T13:14:18.379Z,101537.34
2023-01-06T13:16:54.590Z,101538.94
2023-01-06T13:19:46.557Z,101536.19
2023-01-06T13:22:31.547Z,101538.78
2023-01-06T13:24:57.987Z,101528.97
2023-01-06T13:27:32.563Z,101506.59
2023-01-06T13:30:33.038Z,101547.25
2023-01-06T13:33:18.266Z,101541.72
2023-01-06T13:35:56.841Z,101534.84
2023-01-06T13:38:38.356Z,101475.28
2023-01-06T13:41:10.721Z,101518.00
2023-01-06T13:43:37.372Z,101507.94
2023-01-06T13:46:07.963Z,101500.53
2023-01-06T13:48:38.629Z,101522.09
2023-01-06T13:51:09.521Z,101448.81
2023-01-06T13:53:39.079Z,101425.78
2023-01-06T13:56:25.435Z,101504.03
2023-01-06T13:59:22.819Z,101495.16
2023-01-06T14:01:50.131Z,101502.47
2023-01-06T14:04:28.845Z,101521.34
2023-01-06T14:06:55.850Z,101416.69
2023-01-06T14:09:22.512Z,101505.03
2023-01-06T14:11:49.187Z,101459.16
2023-01-06T14:14:30.012Z,101514.47
2023-01-06T14:16:57.561Z,101490.94
2023-01-06T14:19:34.918Z,101495.13
2023-01-06T14:22:21.667Z,101483.19
2023-01-06T14:24:55.637Z,101505.41
2023-01-06T14:28:03.848Z,101506.13
2023-01-06T14:30:35.657Z,101490.72
2023-01-06T14:33:03.753Z,101522.00
2023-01-06T14:35:44.659Z,101505.91
2023-01-06T14:38:40.885Z,101425.94
2023-01-06T14:41:17.631Z,101507.44
2023-01-06T14:44:01.306Z,101517.41
2023-01-06T14:46:31.939Z,101518.44
2023-01-06T14:49:04.055Z,101415.59
2023-01-06T14:51:32.947Z,101495.41
2023-01-06T14:54:21.510Z,101480.00
2023-01-06T14:56:57.277Z,101497.00
2023-01-06T14:59:25.096Z,101378.66
2023-01-06T15:02:02.483Z,101516.50
2023-01-06T15:04:31.974Z,101435.78
2023-01-06T15:07:02.123Z,101483.19
2023-01-06T15:09:29.398Z,101499.16
2023-01-06T15:11:55.962Z,101479.38
2023-01-06T15:14:25.931Z,101506.09
2023-01-06T15:16:54.358Z,101402.75
2023-01-06T15:19:21.223Z,101492.00
2023-01-06T15:21:50.162Z,101498.97
2023-01-06T15:24:21.370Z,101374.75
2023-01-06T15:26:50.036Z,101421.94
2023-01-06T15:29:19.304Z,101510.50
2023-01-06T15:31:48.243Z,101503.97
2023-01-06T15:34:29.922Z,101507.25
2023-01-06T15:36:56.766Z,101519.53
2023-01-06T15:39:29.644Z,101512.34
2023-01-06T15:41:58.365Z,101488.25
2023-01-06T15:44:29.548Z,101497.25
2023-01-06T15:47:18.264Z,101417.19
2023-01-06T15:50:02.157Z,101490.66
2023-01-06T15:52:30.981Z,101497.50
2023-01-06T15:55:00.389Z,101428.19
2023-01-06T15:57:31.847Z,101490.56
2023-01-06T16:00:07.627Z,101517.34
2023-01-06T16:02:34.246Z,101479.59
2023-01-06T16:05:01.347Z,101506.41
2023-01-06T16:07:41.151Z,101453.31
2023-01-06T16:10:29.601Z,101512.69
2023-01-06T16:13:13.949Z,101444.50
2023-01-06T16:15:48.811Z,101512.41
2023-01-06T16:18:19.104Z,101504.34
2023-01-06T16:20:45.956Z,101496.31
2023-01-06T16:23:26.416Z,101506.13
2023-01-06T16:26:04.612Z,101474.78
2023-01-06T16:28:31.256Z,101514.13
2023-01-06T16:31:10.825Z,101514.88
2023-01-06T16:33:45.616Z,101508.13
2023-01-06T16:36:13.894Z,101431.16
2023-01-06T16:38:40.484Z,101504.19
2023-01-06T16:41:12.550Z,101504.19
2023-01-06T16:43:39.084Z,101505.25
2023-01-06T16:46:17.902Z,101505.16
2023-01-06T16:48:44.536Z,101498.78
2023-01-06T16:51:18.108Z,101487.72
2023-01-06T16:53:45.365Z,101461.63
2023-01-06T16:56:18.681Z,101492.94
2023-01-06T16:58:45.846Z,101484.94
2023-01-06T17:01:18.477Z,101503.56
2023-01-06T17:03:47.422Z,101506.25
2023-01-06T17:06:20.526Z,101485.38
2023-01-06T17:08:47.160Z,101516.56
2023-01-06T17:11:17.705Z,101474.50
2023-01-06T17:13:53.573Z,101508.63
2023-01-06T17:16:26.844Z,101493.47
2023-01-06T17:18:56.278Z,101497.88
2023-01-06T17:21:27.903Z,101480.94
2023-01-06T17:24:23.651Z,101483.88
2023-01-06T17:26:50.121Z,101507.50
2023-01-06T17:29:19.924Z,101474.66
2023-01-06T17:31:50.045Z,101499.97
2023-01-06T17:34:24.830Z,101488.47
2023-01-06T17:36:55.579Z,101496.56
2023-01-06T17:39:32.312Z,101510.00
2023-01-06T17:42:23.616Z,101485.88
2023-01-06T17:44:56.232Z,101508.31
2023-01-06T17:47:22.624Z,101509.50
2023-01-06T17:49:54.886Z,101503.56
2023-01-06T17:52:31.919Z,101469.53
2023-01-06T17:55:43.466Z,101515.38
2023-01-06T17:58:18.721Z,101482.50
2023-01-06T18:00:46.082Z,101425.19
2023-01-06T18:03:19.661Z,101411.00
2023-01-06T18:05:49.488Z,101503.38
2023-01-06T18:08:17.295Z,101416.50
2023-01-06T18:10:45.851Z,101424.69
2023-01-06T18:13:18.921Z,101478.53
2023-01-06T18:15:47.961Z,101471.31
2023-01-06T18:18:24.647Z,101503.78
2023-01-06T18:21:00.255Z,101506.41
2023-01-06T18:23:28.152Z,101480.47
2023-01-06T18:26:01.031Z,101440.28
2023-01-06T18:28:28.531Z,101502.25
2023-01-06T18:30:58.126Z,101474.53
2023-01-06T18:33:25.689Z,101486.41
2023-01-06T18:35:57.240Z,101501.66
2023-01-06T18:38:29.924Z,101496.28
2023-01-06T18:40:56.697Z,101504.47
2023-01-06T18:43:27.817Z,101483.81
2023-01-06T18:46:00.293Z,101493.81
2023-01-06T18:48:30.440Z,101505.53
2023-01-06T18:50:59.361Z,101430.19
2023-01-06T18:53:31.627Z,101487.81
2023-01-06T18:56:03.466Z,101490.41
2023-01-06T18:58:52.491Z,101489.69
2023-01-06T19:01:53.974Z,101492.28
2023-01-06T19:04:31.468Z,101490.53
2023-01-06T19:07:09.507Z,101465.28
2023-01-06T19:09:40.402Z,101408.00
2023-01-06T19:12:30.310Z,101470.88
2023-01-06T19:15:10.858Z,101401.06
2023-01-06T19:17:40.827Z,101450.19
2023-01-06T19:20:26.783Z,101482.50
2023-01-06T19:22:55.239Z,101438.38
2023-01-06T19:25:33.483Z,101469.75
2023-01-06T19:28:04.104Z,101475.22
2023-01-06T19:30:33.352Z,101492.16
2023-01-06T19:33:31.839Z,101479.59
2023-01-06T19:36:06.196Z,101476.00
2023-01-06T19:38:37.808Z,101479.47
2023-01-06T19:41:25.120Z,101460.47
2023-01-06T19:44:00.539Z,101483.84
2023-01-06T19:46:28.828Z,101460.56
2023-01-06T19:48:55.721Z,101490.09
2023-01-06T19:51:34.334Z,101447.81
2023-01-06T19:54:09.952Z,101484.72
2023-01-06T19:56:47.681Z,101459.50
2023-01-06T19:59:29.180Z,101462.09
2023-01-06T20:02:26.835Z,101468.34
2023-01-06T20:04:53.467Z,101447.66
2023-01-06T20:07:20.057Z,101442.28
2023-01-06T20:09:46.894Z,101460.03
2023-01-06T20:12:13.495Z,101461.88
2023-01-06T20:14:40.067Z,101468.91
2023-01-06T20:17:06.561Z,101488.56
2023-01-06T20:19:33.147Z,101463.56
2023-01-06T20:21:59.841Z,101472.47
2023-01-06T20:24:26.358Z,101463.56
2023-01-06T20:26:52.891Z,101476.19
2023-01-06T20:29:20.525Z,101483.28
2023-01-06T20:31:48.109Z,101461.00
2023-01-06T20:34:14.666Z,101480.69
2023-01-06T20:36:41.266Z,101437.56
2023-01-06T20:39:07.808Z,101393.59
2023-01-06T20:41:34.337Z,101465.41
2023-01-06T20:44:00.917Z,101466.38
2023-01-06T20:46:27.470Z,101454.59
2023-01-06T20:48:53.976Z,101445.81
2023-01-06T20:51:20.520Z,101424.28
2023-01-06T20:53:47.054Z,101473.69
2023-01-06T20:56:13.595Z,101446.97
2023-01-06T20:58:40.211Z,101454.13
2023-01-06T21:01:06.896Z,101459.50
2023-01-06T21:03:33.538Z,101442.75
2023-01-06T21:06:00.249Z,101425.56
2023-01-06T21:08:26.754Z,101413.91
2023-01-06T21:10:53.317Z,101435.31
2023-01-06T21:13:23.958Z,101428.06
2023-01-06T21:15:50.949Z,101438.84
2023-01-06T21:18:17.506Z,101433.41
2023-01-06T21:20:44.040Z,101426.28
2023-01-06T21:23:10.674Z,101432.47
2023-01-06T21:25:37.272Z,101450.47
2023-01-06T21:28:04.030Z,101442.34
2023-01-06T21:30:32.071Z,101442.47
2023-01-06T21:32:59.543Z,101441.66
2023-01-06T21:35:26.201Z,101430.94
2023-01-06T21:37:52.795Z,101423.91
2023-01-06T21:40:19.502Z,101427.47
2023-01-06T21:43:05.725Z,101427.63
2023-01-06T21:45:32.464Z,101446.53
2023-01-06T21:47:59.145Z,101433.03
2023-01-06T21:50:27.004Z,101457.38
2023-01-06T21:52:53.941Z,101449.28
2023-01-06T21:55:20.877Z,101428.63
2023-01-06T21:57:48.052Z,101427.75
2023-01-06T22:00:14.829Z,101453.00
2023-01-06T22:02:44.530Z,101392.91
2023-01-06T22:05:12.135Z,101411.84
2023-01-06T22:07:43.128Z,101453.09
2023-01-06T22:10:12.295Z,101437.75
2023-01-06T22:12:41.201Z,101436.91
2023-01-06T22:15:08.928Z,101463.75
2023-01-06T22:17:35.619Z,101448.50
2023-01-06T22:20:03.936Z,101438.66
2023-01-06T22:22:33.413Z,101454.84
2023-01-06T22:25:02.805Z,101428.88
2023-01-06T22:27:30.381Z,101427.94
2023-01-06T22:29:56.955Z,101453.03
2023-01-06T22:32:23.604Z,101451.34
2023-01-06T22:34:50.110Z,101456.75
2023-01-06T22:37:16.642Z,101456.63
2023-01-06T22:39:45.362Z,101464.78
2023-01-06T22:42:12.254Z,101462.09
2023-01-06T22:44:38.760Z,101445.88
2023-01-06T22:47:05.413Z,101461.16
2023-01-06T22:49:31.964Z,101434.25
2023-01-06T22:52:03.697Z,101435.22
2023-01-06T22:54:30.307Z,101437.03
2023-01-06T22:56:56.842Z,101429.81
2023-01-06T22:59:23.444Z,101462.06
2023-01-06T23:01:50.015Z,101451.25
2023-01-06T23:04:16.692Z,101456.56
2023-01-06T23:06:43.259Z,101476.31
2023-01-06T23:09:09.884Z,101477.19
2023-01-06T23:11:41.438Z,101475.34
2023-01-06T23:14:09.225Z,101455.69
2023-01-06T23:16:37.055Z,101399.09
2023-01-06T23:19:04.107Z,101466.25
2023-01-06T23:21:31.865Z,101373.72
2023-01-06T23:23:58.567Z,101427.44
2023-01-06T23:26:28.026Z,101392.53
2023-01-06T23:28:55.764Z,101454.41
2023-01-06T23:31:27.752Z,101422.22
2023-01-06T23:33:56.466Z,101386.44
2023-01-06T23:36:24.867Z,101459.03
2023-01-06T23:38:52.409Z,101422.19
2023-01-06T23:41:24.358Z,101417.78
2023-01-06T23:43:51.471Z,101384.56
2023-01-06T23:46:25.358Z,101432.16
2023-01-06T23:48:52.954Z,101382.72
2023-01-06T23:51:20.469Z,101450.97
2023-01-06T23:53:47.075Z,101444.78
2023-01-06T23:56:16.458Z,101448.31
2023-01-06T23:58:44.977Z,101440.22
